sensor_id;sensor_type;location;lat;lon;timestamp;P1;durP1;ratioP1;P2;durP2;ratioP2
16813;SDS011;8524;57.650;11.926;2022-11-15T00:00:44;5.60;;;4.80;;
16813;SDS011;8524;57.650;11.926;2022-11-15T00:03:12;5.70;;;4.60;;
16813;SDS011;8524;57.650;11.926;2022-11-15T00:05:40;4.93;;;4.53;;
16813;SDS011;8524;57.650;11.926;2022-11-15T00:08:08;4.80;;;4.30;;
16813;SDS011;8524;57.650;11.926;2022-11-15T00:10:35;4.93;;;4.43;;
16813;SDS011;8524;57.650;11.926;2022-11-15T00:13:04;5.00;;;4.60;;
16813;SDS011;8524;57.650;11.926;2022-11-15T00:15:33;5.13;;;4.63;;
16813;SDS011;8524;57.650;11.926;2022-11-15T00:18:01;4.57;;;4.17;;
16813;SDS011;8524;57.650;11.926;2022-11-15T00:20:28;7.23;;;4.70;;
16813;SDS011;8524;57.650;11.926;2022-11-15T00:22:55;5.53;;;4.30;;
16813;SDS011;8524;57.650;11.926;2022-11-15T00:25:24;5.13;;;4.47;;
16813;SDS011;8524;57.650;11.926;2022-11-15T00:27:54;5.60;;;4.73;;
16813;SDS011;8524;57.650;11.926;2022-11-15T00:30:22;5.53;;;4.27;;
16813;SDS011;8524;57.650;11.926;2022-11-15T00:32:49;5.63;;;4.70;;
16813;SDS011;8524;57.650;11.926;2022-11-15T00:35:16;6.30;;;4.80;;
16813;SDS011;8524;57.650;11.926;2022-11-15T00:37:43;5.83;;;4.70;;
16813;SDS011;8524;57.650;11.926;2022-11-15T00:40:11;5.07;;;4.43;;
16813;SDS011;8524;57.650;11.926;2022-11-15T00:42:40;5.17;;;4.60;;
16813;SDS011;8524;57.650;11.926;2022-11-15T00:45:08;5.30;;;4.90;;
16813;SDS011;8524;57.650;11.926;2022-11-15T00:47:35;6.07;;;4.97;;
16813;SDS011;8524;57.650;11.926;2022-11-15T00:50:02;4.73;;;4.33;;
16813;SDS011;8524;57.650;11.926;2022-11-15T00:52:30;5.65;;;5.05;;
16813;SDS011;8524;57.650;11.926;2022-11-15T00:54:57;5.13;;;4.63;;
16813;SDS011;8524;57.650;11.926;2022-11-15T00:57:24;6.67;;;4.83;;
16813;SDS011;8524;57.650;11.926;2022-11-15T00:59:52;5.40;;;4.90;;
16813;SDS011;8524;57.650;11.926;2022-11-15T01:02:19;5.43;;;4.93;;
16813;SDS011;8524;57.650;11.926;2022-11-15T01:04:46;5.70;;;5.10;;
16813;SDS011;8524;57.650;11.926;2022-11-15T01:07:13;5.03;;;4.53;;
16813;SDS011;8524;57.650;11.926;2022-11-15T01:09:40;5.60;;;4.77;;
16813;SDS011;8524;57.650;11.926;2022-11-15T01:12:07;7.13;;;5.07;;
16813;SDS011;8524;57.650;11.926;2022-11-15T01:14:34;5.03;;;4.53;;
16813;SDS011;8524;57.650;11.926;2022-11-15T01:17:02;5.40;;;4.77;;
16813;SDS011;8524;57.650;11.926;2022-11-15T01:19:29;5.87;;;4.67;;
16813;SDS011;8524;57.650;11.926;2022-11-15T01:21:56;5.70;;;4.80;;
16813;SDS011;8524;57.650;11.926;2022-11-15T01:24:23;5.50;;;5.00;;
16813;SDS011;8524;57.650;11.926;2022-11-15T01:26:50;5.67;;;4.83;;
16813;SDS011;8524;57.650;11.926;2022-11-15T01:29:17;5.10;;;4.70;;
16813;SDS011;8524;57.650;11.926;2022-11-15T01:31:44;6.03;;;4.50;;
16813;SDS011;8524;57.650;11.926;2022-11-15T01:34:12;5.90;;;5.13;;
16813;SDS011;8524;57.650;11.926;2022-11-15T01:36:40;5.37;;;4.83;;
16813;SDS011;8524;57.650;11.926;2022-11-15T01:39:07;5.77;;;5.03;;
16813;SDS011;8524;57.650;11.926;2022-11-15T01:41:34;6.27;;;5.30;;
16813;SDS011;8524;57.650;11.926;2022-11-15T01:47:06;5.57;;;5.07;;
16813;SDS011;8524;57.650;11.926;2022-11-15T01:49:39;5.27;;;4.73;;
16813;SDS011;8524;57.650;11.926;2022-11-15T01:52:13;5.00;;;4.50;;
16813;SDS011;8524;57.650;11.926;2022-11-15T01:54:43;6.07;;;5.57;;
16813;SDS011;8524;57.650;11.926;2022-11-15T01:57:10;5.50;;;4.70;;
16813;SDS011;8524;57.650;11.926;2022-11-15T01:59:39;5.40;;;4.90;;
16813;SDS011;8524;57.650;11.926;2022-11-15T02:02:09;7.10;;;5.10;;
16813;SDS011;8524;57.650;11.926;2022-11-15T02:04:40;5.43;;;4.77;;
16813;SDS011;8524;57.650;11.926;2022-11-15T02:07:08;5.20;;;4.70;;
16813;SDS011;8524;57.650;11.926;2022-11-15T02:09:38;5.70;;;4.60;;
16813;SDS011;8524;57.650;11.926;2022-11-15T02:12:05;5.53;;;4.93;;
16813;SDS011;8524;57.650;11.926;2022-11-15T02:14:34;5.30;;;4.80;;
16813;SDS011;8524;57.650;11.926;2022-11-15T02:17:06;5.43;;;4.50;;
16813;SDS011;8524;57.650;11.926;2022-11-15T02:19:52;5.20;;;4.70;;
16813;SDS011;8524;57.650;11.926;2022-11-15T02:22:45;5.30;;;4.80;;
16813;SDS011;8524;57.650;11.926;2022-11-15T02:25:27;5.70;;;4.80;;
16813;SDS011;8524;57.650;11.926;2022-11-15T02:28:16;6.27;;;4.70;;
16813;SDS011;8524;57.650;11.926;2022-11-15T02:31:04;5.20;;;4.70;;
16813;SDS011;8524;57.650;11.926;2022-11-15T02:33:38;6.10;;;4.83;;
16813;SDS011;8524;57.650;11.926;2022-11-15T02:36:14;5.68;;;5.18;;
16813;SDS011;8524;57.650;11.926;2022-11-15T02:38:51;5.43;;;4.93;;
16813;SDS011;8524;57.650;11.926;2022-11-15T02:41:26;5.77;;;5.17;;
16813;SDS011;8524;57.650;11.926;2022-11-15T02:44:02;5.70;;;5.03;;
16813;SDS011;8524;57.650;11.926;2022-11-15T02:46:34;5.70;;;5.10;;
16813;SDS011;8524;57.650;11.926;2022-11-15T02:49:23;5.60;;;5.10;;
16813;SDS011;8524;57.650;11.926;2022-11-15T02:51:51;5.17;;;4.67;;
16813;SDS011;8524;57.650;11.926;2022-11-15T02:54:20;5.87;;;5.27;;
16813;SDS011;8524;57.650;11.926;2022-11-15T02:56:50;5.70;;;5.20;;
16813;SDS011;8524;57.650;11.926;2022-11-15T02:59:23;5.87;;;5.27;;
16813;SDS011;8524;57.650;11.926;2022-11-15T03:02:10;6.33;;;5.23;;
16813;SDS011;8524;57.650;11.926;2022-11-15T03:04:44;6.03;;;5.43;;
16813;SDS011;8524;57.650;11.926;2022-11-15T03:07:19;5.27;;;4.77;;
16813;SDS011;8524;57.650;11.926;2022-11-15T03:09:51;6.07;;;4.83;;
16813;SDS011;8524;57.650;11.926;2022-11-15T03:12:24;5.27;;;4.67;;
16813;SDS011;8524;57.650;11.926;2022-11-15T03:14:56;5.50;;;4.90;;
16813;SDS011;8524;57.650;11.926;2022-11-15T03:17:29;6.03;;;5.43;;
16813;SDS011;8524;57.650;11.926;2022-11-15T03:20:00;9.03;;;5.53;;
16813;SDS011;8524;57.650;11.926;2022-11-15T03:22:32;7.17;;;5.40;;
16813;SDS011;8524;57.650;11.926;2022-11-15T03:25:03;5.63;;;4.97;;
16813;SDS011;8524;57.650;11.926;2022-11-15T03:27:33;6.13;;;5.23;;
16813;SDS011;8524;57.650;11.926;2022-11-15T03:30:05;5.70;;;5.20;;
16813;SDS011;8524;57.650;11.926;2022-11-15T03:32:35;5.90;;;5.30;;
16813;SDS011;8524;57.650;11.926;2022-11-15T03:35:06;6.60;;;5.70;;
16813;SDS011;8524;57.650;11.926;2022-11-15T03:37:40;6.27;;;5.50;;
16813;SDS011;8524;57.650;11.926;2022-11-15T03:40:10;5.73;;;5.13;;
16813;SDS011;8524;57.650;11.926;2022-11-15T03:42:38;5.60;;;5.10;;
16813;SDS011;8524;57.650;11.926;2022-11-15T03:45:13;5.93;;;5.40;;
16813;SDS011;8524;57.650;11.926;2022-11-15T03:47:45;6.90;;;6.17;;
16813;SDS011;8524;57.650;11.926;2022-11-15T03:50:18;6.53;;;5.87;;
16813;SDS011;8524;57.650;11.926;2022-11-15T03:52:47;7.40;;;5.57;;
16813;SDS011;8524;57.650;11.926;2022-11-15T03:55:16;6.43;;;5.80;;
16813;SDS011;8524;57.650;11.926;2022-11-15T03:57:45;7.93;;;6.07;;
16813;SDS011;8524;57.650;11.926;2022-11-15T04:00:14;6.50;;;5.77;;
16813;SDS011;8524;57.650;11.926;2022-11-15T04:02:41;7.00;;;6.30;;
16813;SDS011;8524;57.650;11.926;2022-11-15T04:05:10;6.80;;;6.10;;
16813;SDS011;8524;57.650;11.926;2022-11-15T04:07:37;6.80;;;5.97;;
16813;SDS011;8524;57.650;11.926;2022-11-15T04:10:04;7.13;;;6.23;;
16813;SDS011;8524;57.650;11.926;2022-11-15T04:12:32;7.77;;;6.97;;
16813;SDS011;8524;57.650;11.926;2022-11-15T04:15:01;8.23;;;6.80;;
16813;SDS011;8524;57.650;11.926;2022-11-15T04:17:39;7.63;;;6.93;;
16813;SDS011;8524;57.650;11.926;2022-11-15T04:20:10;6.87;;;6.17;;
16813;SDS011;8524;57.650;11.926;2022-11-15T04:22:56;8.10;;;7.30;;
16813;SDS011;8524;57.650;11.926;2022-11-15T04:25:41;7.43;;;6.70;;
16813;SDS011;8524;57.650;11.926;2022-11-15T04:28:09;9.20;;;8.13;;
16813;SDS011;8524;57.650;11.926;2022-11-15T04:30:36;8.17;;;7.37;;
16813;SDS011;8524;57.650;11.926;2022-11-15T04:33:03;8.50;;;7.67;;
16813;SDS011;8524;57.650;11.926;2022-11-15T04:35:31;8.37;;;7.57;;
16813;SDS011;8524;57.650;11.926;2022-11-15T04:37:58;7.87;;;7.03;;
16813;SDS011;8524;57.650;11.926;2022-11-15T04:40:26;10.40;;;7.50;;
16813;SDS011;8524;57.650;11.926;2022-11-15T04:42:53;8.60;;;7.70;;
16813;SDS011;8524;57.650;11.926;2022-11-15T04:45:19;8.07;;;7.27;;
16813;SDS011;8524;57.650;11.926;2022-11-15T04:47:46;8.87;;;7.97;;
16813;SDS011;8524;57.650;11.926;2022-11-15T04:50:14;10.63;;;7.53;;
16813;SDS011;8524;57.650;11.926;2022-11-15T04:52:49;8.83;;;7.60;;
16813;SDS011;8524;57.650;11.926;2022-11-15T04:55:17;8.33;;;7.30;;
16813;SDS011;8524;57.650;11.926;2022-11-15T04:57:44;8.57;;;7.60;;
16813;SDS011;8524;57.650;11.926;2022-11-15T05:00:12;8.53;;;7.63;;
16813;SDS011;8524;57.650;11.926;2022-11-15T05:02:41;8.80;;;7.47;;
16813;SDS011;8524;57.650;11.926;2022-11-15T05:05:25;8.87;;;7.37;;
16813;SDS011;8524;57.650;11.926;2022-11-15T05:07:53;9.10;;;7.33;;
16813;SDS011;8524;57.650;11.926;2022-11-15T05:10:20;8.17;;;7.37;;
16813;SDS011;8524;57.650;11.926;2022-11-15T05:12:47;9.13;;;7.50;;
16813;SDS011;8524;57.650;11.926;2022-11-15T05:15:14;8.20;;;6.90;;
16813;SDS011;8524;57.650;11.926;2022-11-15T05:17:41;7.90;;;6.93;;
16813;SDS011;8524;57.650;11.926;2022-11-15T05:20:08;7.87;;;6.90;;
16813;SDS011;8524;57.650;11.926;2022-11-15T05:22:36;8.43;;;7.03;;
16813;SDS011;8524;57.650;11.926;2022-11-15T05:25:05;8.23;;;6.87;;
16813;SDS011;8524;57.650;11.926;2022-11-15T05:27:32;7.13;;;6.17;;
16813;SDS011;8524;57.650;11.926;2022-11-15T05:30:00;7.53;;;6.53;;
16813;SDS011;8524;57.650;11.926;2022-11-15T05:32:27;8.00;;;7.20;;
16813;SDS011;8524;57.650;11.926;2022-11-15T05:34:54;8.77;;;6.73;;
16813;SDS011;8524;57.650;11.926;2022-11-15T05:37:22;8.33;;;7.00;;
16813;SDS011;8524;57.650;11.926;2022-11-15T05:39:48;8.40;;;7.20;;
16813;SDS011;8524;57.650;11.926;2022-11-15T05:42:17;7.77;;;6.70;;
16813;SDS011;8524;57.650;11.926;2022-11-15T05:44:45;7.17;;;6.43;;
16813;SDS011;8524;57.650;11.926;2022-11-15T05:47:15;7.67;;;6.87;;
16813;SDS011;8524;57.650;11.926;2022-11-15T05:49:45;8.13;;;7.33;;
16813;SDS011;8524;57.650;11.926;2022-11-15T05:52:14;7.83;;;7.03;;
16813;SDS011;8524;57.650;11.926;2022-11-15T05:54:44;7.40;;;6.17;;
16813;SDS011;8524;57.650;11.926;2022-11-15T05:57:11;7.60;;;5.87;;
16813;SDS011;8524;57.650;11.926;2022-11-15T05:59:39;7.33;;;6.23;;
16813;SDS011;8524;57.650;11.926;2022-11-15T06:02:08;7.07;;;6.37;;
16813;SDS011;8524;57.650;11.926;2022-11-15T06:04:35;8.73;;;6.60;;
16813;SDS011;8524;57.650;11.926;2022-11-15T06:07:02;7.00;;;6.30;;
16813;SDS011;8524;57.650;11.926;2022-11-15T06:09:29;7.97;;;6.33;;
16813;SDS011;8524;57.650;11.926;2022-11-15T06:11:56;9.00;;;7.37;;
16813;SDS011;8524;57.650;11.926;2022-11-15T06:14:23;7.77;;;6.33;;
16813;SDS011;8524;57.650;11.926;2022-11-15T06:16:51;7.37;;;6.20;;
16813;SDS011;8524;57.650;11.926;2022-11-15T06:19:18;8.85;;;7.20;;
16813;SDS011;8524;57.650;11.926;2022-11-15T06:21:45;7.20;;;5.70;;
16813;SDS011;8524;57.650;11.926;2022-11-15T06:24:12;7.57;;;6.50;;
16813;SDS011;8524;57.650;11.926;2022-11-15T06:26:39;7.87;;;6.67;;
16813;SDS011;8524;57.650;11.926;2022-11-15T06:29:05;7.30;;;6.50;;
16813;SDS011;8524;57.650;11.926;2022-11-15T06:31:33;7.43;;;6.03;;
16813;SDS011;8524;57.650;11.926;2022-11-15T06:34:01;7.13;;;6.40;;
16813;SDS011;8524;57.650;11.926;2022-11-15T06:36:28;7.67;;;5.90;;
16813;SDS011;8524;57.650;11.926;2022-11-15T06:38:56;6.87;;;6.10;;
16813;SDS011;8524;57.650;11.926;2022-11-15T06:41:23;7.70;;;6.13;;
16813;SDS011;8524;57.650;11.926;2022-11-15T06:43:50;7.73;;;6.20;;
16813;SDS011;8524;57.650;11.926;2022-11-15T06:46:17;8.13;;;5.90;;
16813;SDS011;8524;57.650;11.926;2022-11-15T06:48:44;6.53;;;5.77;;
16813;SDS011;8524;57.650;11.926;2022-11-15T06:51:12;9.00;;;6.27;;
16813;SDS011;8524;57.650;11.926;2022-11-15T06:53:39;7.60;;;6.00;;
16813;SDS011;8524;57.650;11.926;2022-11-15T06:56:06;6.77;;;6.07;;
16813;SDS011;8524;57.650;11.926;2022-11-15T06:58:34;8.37;;;6.53;;
16813;SDS011;8524;57.650;11.926;2022-11-15T07:01:01;7.43;;;6.40;;
16813;SDS011;8524;57.650;11.926;2022-11-15T07:03:30;7.67;;;6.20;;
16813;SDS011;8524;57.650;11.926;2022-11-15T07:05:57;7.67;;;6.23;;
16813;SDS011;8524;57.650;11.926;2022-11-15T07:08:27;6.37;;;5.60;;
16813;SDS011;8524;57.650;11.926;2022-11-15T07:10:55;6.30;;;5.37;;
16813;SDS011;8524;57.650;11.926;2022-11-15T07:13:24;6.37;;;5.70;;
16813;SDS011;8524;57.650;11.926;2022-11-15T07:15:51;8.17;;;6.20;;
16813;SDS011;8524;57.650;11.926;2022-11-15T07:18:18;6.53;;;5.57;;
16813;SDS011;8524;57.650;11.926;2022-11-15T07:20:46;6.20;;;5.60;;
16813;SDS011;8524;57.650;11.926;2022-11-15T07:23:13;7.00;;;5.40;;
16813;SDS011;8524;57.650;11.926;2022-11-15T07:25:41;5.83;;;5.23;;
16813;SDS011;8524;57.650;11.926;2022-11-15T07:28:08;7.10;;;5.50;;
16813;SDS011;8524;57.650;11.926;2022-11-15T07:30:35;5.93;;;5.33;;
16813;SDS011;8524;57.650;11.926;2022-11-15T07:33:02;5.63;;;4.90;;
16813;SDS011;8524;57.650;11.926;2022-11-15T07:35:29;6.40;;;5.50;;
16813;SDS011;8524;57.650;11.926;2022-11-15T07:37:56;5.80;;;4.37;;
16813;SDS011;8524;57.650;11.926;2022-11-15T07:40:25;6.40;;;5.07;;
16813;SDS011;8524;57.650;11.926;2022-11-15T07:42:53;5.83;;;4.77;;
16813;SDS011;8524;57.650;11.926;2022-11-15T07:45:25;5.67;;;4.90;;
16813;SDS011;8524;57.650;11.926;2022-11-15T07:47:52;5.47;;;4.97;;
16813;SDS011;8524;57.650;11.926;2022-11-15T07:50:20;6.33;;;4.97;;
16813;SDS011;8524;57.650;11.926;2022-11-15T07:52:51;4.67;;;4.20;;
16813;SDS011;8524;57.650;11.926;2022-11-15T07:55:19;6.20;;;5.30;;
16813;SDS011;8524;57.650;11.926;2022-11-15T07:57:46;5.90;;;5.10;;
16813;SDS011;8524;57.650;11.926;2022-11-15T08:00:15;6.00;;;4.80;;
16813;SDS011;8524;57.650;11.926;2022-11-15T08:02:43;5.43;;;4.63;;
16813;SDS011;8524;57.650;11.926;2022-11-15T08:05:10;6.70;;;5.00;;
16813;SDS011;8524;57.650;11.926;2022-11-15T08:07:37;5.37;;;4.63;;
16813;SDS011;8524;57.650;11.926;2022-11-15T08:10:05;6.50;;;4.80;;
16813;SDS011;8524;57.650;11.926;2022-11-15T08:12:33;5.17;;;4.50;;
16813;SDS011;8524;57.650;11.926;2022-11-15T08:15:00;5.90;;;5.15;;
16813;SDS011;8524;57.650;11.926;2022-11-15T08:17:29;5.43;;;4.70;;
16813;SDS011;8524;57.650;11.926;2022-11-15T08:19:57;5.47;;;4.43;;
16813;SDS011;8524;57.650;11.926;2022-11-15T08:22:25;5.60;;;4.60;;
16813;SDS011;8524;57.650;11.926;2022-11-15T08:24:52;5.07;;;4.57;;
16813;SDS011;8524;57.650;11.926;2022-11-15T08:27:19;5.30;;;4.40;;
16813;SDS011;8524;57.650;11.926;2022-11-15T08:29:46;5.13;;;4.03;;
16813;SDS011;8524;57.650;11.926;2022-11-15T08:32:14;5.17;;;4.67;;
16813;SDS011;8524;57.650;11.926;2022-11-15T08:34:44;5.23;;;4.53;;
16813;SDS011;8524;57.650;11.926;2022-11-15T08:37:11;6.07;;;4.73;;
16813;SDS011;8524;57.650;11.926;2022-11-15T08:39:38;5.23;;;4.43;;
16813;SDS011;8524;57.650;11.926;2022-11-15T08:42:04;5.13;;;4.63;;
16813;SDS011;8524;57.650;11.926;2022-11-15T08:44:31;5.37;;;4.30;;
16813;SDS011;8524;57.650;11.926;2022-11-15T08:46:58;5.60;;;4.87;;
16813;SDS011;8524;57.650;11.926;2022-11-15T08:49:25;5.60;;;4.70;;
16813;SDS011;8524;57.650;11.926;2022-11-15T08:51:53;5.73;;;4.60;;
16813;SDS011;8524;57.650;11.926;2022-11-15T08:54:20;5.63;;;4.97;;
16813;SDS011;8524;57.650;11.926;2022-11-15T08:56:48;7.67;;;4.93;;
16813;SDS011;8524;57.650;11.926;2022-11-15T08:59:14;4.97;;;4.40;;
16813;SDS011;8524;57.650;11.926;2022-11-15T09:01:41;4.60;;;4.07;;
16813;SDS011;8524;57.650;11.926;2022-11-15T09:04:08;6.07;;;4.50;;
16813;SDS011;8524;57.650;11.926;2022-11-15T09:06:35;6.77;;;4.50;;
16813;SDS011;8524;57.650;11.926;2022-11-15T09:09:04;5.90;;;4.20;;
16813;SDS011;8524;57.650;11.926;2022-11-15T09:11:31;6.13;;;5.10;;
16813;SDS011;8524;57.650;11.926;2022-11-15T09:13:58;5.03;;;4.33;;
16813;SDS011;8524;57.650;11.926;2022-11-15T09:16:25;5.00;;;4.50;;
16813;SDS011;8524;57.650;11.926;2022-11-15T09:18:52;6.37;;;4.10;;
16813;SDS011;8524;57.650;11.926;2022-11-15T09:21:19;4.60;;;3.93;;
16813;SDS011;8524;57.650;11.926;2022-11-15T09:23:46;5.90;;;4.40;;
16813;SDS011;8524;57.650;11.926;2022-11-15T09:26:17;5.10;;;4.33;;
16813;SDS011;8524;57.650;11.926;2022-11-15T09:28:44;5.23;;;4.27;;
16813;SDS011;8524;57.650;11.926;2022-11-15T09:31:11;4.67;;;4.00;;
16813;SDS011;8524;57.650;11.926;2022-11-15T09:33:38;4.87;;;3.90;;
16813;SDS011;8524;57.650;11.926;2022-11-15T09:36:06;5.10;;;4.50;;
16813;SDS011;8524;57.650;11.926;2022-11-15T09:38:34;5.20;;;4.30;;
16813;SDS011;8524;57.650;11.926;2022-11-15T09:44:05;5.43;;;4.77;;
16813;SDS011;8524;57.650;11.926;2022-11-15T09:46:44;5.60;;;4.37;;
16813;SDS011;8524;57.650;11.926;2022-11-15T09:49:20;5.53;;;4.53;;
16813;SDS011;8524;57.650;11.926;2022-11-15T09:51:49;4.80;;;4.10;;
16813;SDS011;8524;57.650;11.926;2022-11-15T09:54:21;5.43;;;3.93;;
16813;SDS011;8524;57.650;11.926;2022-11-15T09:56:54;6.27;;;4.27;;
16813;SDS011;8524;57.650;11.926;2022-11-15T09:59:27;4.60;;;3.97;;
16813;SDS011;8524;57.650;11.926;2022-11-15T10:02:05;5.80;;;4.13;;
16813;SDS011;8524;57.650;11.926;2022-11-15T10:04:42;4.17;;;3.63;;
16813;SDS011;8524;57.650;11.926;2022-11-15T10:07:19;4.97;;;4.20;;
16813;SDS011;8524;57.650;11.926;2022-11-15T10:09:52;5.37;;;4.40;;
16813;SDS011;8524;57.650;11.926;2022-11-15T10:12:23;5.20;;;4.27;;
16813;SDS011;8524;57.650;11.926;2022-11-15T10:14:55;5.37;;;4.20;;
16813;SDS011;8524;57.650;11.926;2022-11-15T10:17:40;4.93;;;4.43;;
16813;SDS011;8524;57.650;11.926;2022-11-15T10:20:23;5.07;;;4.13;;
16813;SDS011;8524;57.650;11.926;2022-11-15T10:22:52;4.97;;;4.30;;
16813;SDS011;8524;57.650;11.926;2022-11-15T10:25:22;4.60;;;3.73;;
16813;SDS011;8524;57.650;11.926;2022-11-15T10:27:53;4.50;;;4.10;;
16813;SDS011;8524;57.650;11.926;2022-11-15T10:30:22;5.87;;;4.93;;
16813;SDS011;8524;57.650;11.926;2022-11-15T10:32:57;4.30;;;3.90;;
16813;SDS011;8524;57.650;11.926;2022-11-15T10:35:27;4.67;;;4.07;;
16813;SDS011;8524;57.650;11.926;2022-11-15T10:38:04;4.37;;;3.97;;
16813;SDS011;8524;57.650;11.926;2022-11-15T10:40:32;6.13;;;4.90;;
16813;SDS011;8524;57.650;11.926;2022-11-15T10:43:12;6.03;;;4.40;;
16813;SDS011;8524;57.650;11.926;2022-11-15T10:45:41;4.45;;;3.80;;
16813;SDS011;8524;57.650;11.926;2022-11-15T10:50:51;5.83;;;4.47;;
16813;SDS011;8524;57.650;11.926;2022-11-15T10:53:21;5.60;;;4.27;;
16813;SDS011;8524;57.650;11.926;2022-11-15T10:55:54;4.33;;;3.93;;
16813;SDS011;8524;57.650;11.926;2022-11-15T10:58:30;5.50;;;4.50;;
16813;SDS011;8524;57.650;11.926;2022-11-15T11:01:08;4.77;;;4.27;;
16813;SDS011;8524;57.650;11.926;2022-11-15T11:03:37;4.53;;;3.80;;
16813;SDS011;8524;57.650;11.926;2022-11-15T11:06:06;5.33;;;4.30;;
16813;SDS011;8524;57.650;11.926;2022-11-15T11:08:36;4.33;;;3.73;;
16813;SDS011;8524;57.650;11.926;2022-11-15T11:11:03;4.67;;;4.20;;
16813;SDS011;8524;57.650;11.926;2022-11-15T11:13:34;4.73;;;3.73;;
16813;SDS011;8524;57.650;11.926;2022-11-15T11:16:10;4.70;;;4.20;;
16813;SDS011;8524;57.650;11.926;2022-11-15T11:18:49;4.10;;;3.60;;
16813;SDS011;8524;57.650;11.926;2022-11-15T11:21:25;5.57;;;3.77;;
16813;SDS011;8524;57.650;11.926;2022-11-15T11:24:04;5.07;;;3.67;;
16813;SDS011;8524;57.650;11.926;2022-11-15T11:26:40;5.23;;;4.00;;
16813;SDS011;8524;57.650;11.926;2022-11-15T11:29:17;4.30;;;3.70;;
16813;SDS011;8524;57.650;11.926;2022-11-15T11:31:52;4.00;;;3.60;;
16813;SDS011;8524;57.650;11.926;2022-11-15T11:34:31;4.73;;;3.70;;
16813;SDS011;8524;57.650;11.926;2022-11-15T11:37:10;4.10;;;3.70;;
16813;SDS011;8524;57.650;11.926;2022-11-15T11:39:43;3.70;;;3.40;;
16813;SDS011;8524;57.650;11.926;2022-11-15T11:42:23;4.00;;;3.27;;
16813;SDS011;8524;57.650;11.926;2022-11-15T11:45:01;4.17;;;3.77;;
16813;SDS011;8524;57.650;11.926;2022-11-15T11:47:43;3.43;;;3.07;;
16813;SDS011;8524;57.650;11.926;2022-11-15T11:50:14;4.30;;;3.80;;
16813;SDS011;8524;57.650;11.926;2022-11-15T11:52:47;4.03;;;3.60;;
16813;SDS011;8524;57.650;11.926;2022-11-15T11:55:23;5.07;;;3.47;;
16813;SDS011;8524;57.650;11.926;2022-11-15T11:57:57;5.33;;;3.50;;
16813;SDS011;8524;57.650;11.926;2022-11-15T12:00:31;4.23;;;3.43;;
16813;SDS011;8524;57.650;11.926;2022-11-15T12:03:03;4.60;;;3.40;;
16813;SDS011;8524;57.650;11.926;2022-11-15T12:05:36;4.47;;;3.33;;
16813;SDS011;8524;57.650;11.926;2022-11-15T12:08:17;3.93;;;3.10;;
16813;SDS011;8524;57.650;11.926;2022-11-15T12:10:53;3.83;;;2.80;;
16813;SDS011;8524;57.650;11.926;2022-11-15T12:13:28;3.90;;;3.03;;
16813;SDS011;8524;57.650;11.926;2022-11-15T12:16:03;3.40;;;2.70;;
16813;SDS011;8524;57.650;11.926;2022-11-15T12:18:33;4.30;;;2.90;;
16813;SDS011;8524;57.650;11.926;2022-11-15T12:21:01;3.87;;;2.93;;
16813;SDS011;8524;57.650;11.926;2022-11-15T12:23:39;3.50;;;2.83;;
16813;SDS011;8524;57.650;11.926;2022-11-15T12:26:11;3.13;;;2.83;;
16813;SDS011;8524;57.650;11.926;2022-11-15T12:28:45;4.70;;;3.10;;
16813;SDS011;8524;57.650;11.926;2022-11-15T12:31:19;3.30;;;2.83;;
16813;SDS011;8524;57.650;11.926;2022-11-15T12:33:50;4.33;;;2.93;;
16813;SDS011;8524;57.650;11.926;2022-11-15T12:36:35;2.83;;;2.58;;
16813;SDS011;8524;57.650;11.926;2022-11-15T12:39:04;3.60;;;2.93;;
16813;SDS011;8524;57.650;11.926;2022-11-15T12:41:32;4.47;;;2.90;;
16813;SDS011;8524;57.650;11.926;2022-11-15T12:44:00;4.13;;;2.47;;
16813;SDS011;8524;57.650;11.926;2022-11-15T12:49:43;3.30;;;2.47;;
16813;SDS011;8524;57.650;11.926;2022-11-15T12:52:11;3.07;;;2.50;;
16813;SDS011;8524;57.650;11.926;2022-11-15T12:54:58;3.10;;;2.27;;
16813;SDS011;8524;57.650;11.926;2022-11-15T12:57:34;2.87;;;2.10;;
16813;SDS011;8524;57.650;11.926;2022-11-15T13:00:36;2.67;;;2.47;;
16813;SDS011;8524;57.650;11.926;2022-11-15T13:03:27;2.40;;;2.20;;
16813;SDS011;8524;57.650;11.926;2022-11-15T13:06:05;4.13;;;2.43;;
16813;SDS011;8524;57.650;11.926;2022-11-15T13:08:57;2.50;;;2.30;;
16813;SDS011;8524;57.650;11.926;2022-11-15T13:17:25;2.53;;;2.00;;
16813;SDS011;8524;57.650;11.926;2022-11-15T13:20:00;2.13;;;1.90;;
16813;SDS011;8524;57.650;11.926;2022-11-15T13:22:39;1.90;;;1.73;;
16813;SDS011;8524;57.650;11.926;2022-11-15T13:28:31;2.67;;;1.90;;
16813;SDS011;8524;57.650;11.926;2022-11-15T13:31:01;1.70;;;1.60;;
16813;SDS011;8524;57.650;11.926;2022-11-15T13:33:30;3.13;;;2.15;;
16813;SDS011;8524;57.650;11.926;2022-11-15T13:36:00;2.10;;;1.90;;
16813;SDS011;8524;57.650;11.926;2022-11-15T13:38:30;2.10;;;1.90;;
16813;SDS011;8524;57.650;11.926;2022-11-15T13:41:00;2.23;;;2.03;;
16813;SDS011;8524;57.650;11.926;2022-11-15T13:43:40;3.25;;;1.80;;
16813;SDS011;8524;57.650;11.926;2022-11-15T13:46:09;1.87;;;1.53;;
16813;SDS011;8524;57.650;11.926;2022-11-15T13:48:38;1.47;;;1.37;;
16813;SDS011;8524;57.650;11.926;2022-11-15T13:51:07;1.40;;;1.10;;
16813;SDS011;8524;57.650;11.926;2022-11-15T13:53:39;2.73;;;1.03;;
16813;SDS011;8524;57.650;11.926;2022-11-15T13:56:12;2.20;;;1.20;;
16813;SDS011;8524;57.650;11.926;2022-11-15T13:58:41;2.17;;;1.47;;
16813;SDS011;8524;57.650;11.926;2022-11-15T14:01:13;1.77;;;1.20;;
16813;SDS011;8524;57.650;11.926;2022-11-15T14:03:46;1.77;;;1.27;;
16813;SDS011;8524;57.650;11.926;2022-11-15T14:06:17;1.27;;;1.10;;
16813;SDS011;8524;57.650;11.926;2022-11-15T14:09:00;1.20;;;1.10;;
16813;SDS011;8524;57.650;11.926;2022-11-15T14:11:32;1.40;;;1.27;;
16813;SDS011;8524;57.650;11.926;2022-11-15T14:14:04;1.37;;;1.27;;
16813;SDS011;8524;57.650;11.926;2022-11-15T14:16:41;1.20;;;1.13;;
16813;SDS011;8524;57.650;11.926;2022-11-15T14:19:09;1.33;;;1.00;;
16813;SDS011;8524;57.650;11.926;2022-11-15T14:21:43;1.60;;;1.50;;
16813;SDS011;8524;57.650;11.926;2022-11-15T14:24:47;2.07;;;1.33;;
16813;SDS011;8524;57.650;11.926;2022-11-15T14:27:40;1.23;;;1.13;;
16813;SDS011;8524;57.650;11.926;2022-11-15T14:30:12;1.93;;;1.50;;
16813;SDS011;8524;57.650;11.926;2022-11-15T14:32:42;1.67;;;1.43;;
16813;SDS011;8524;57.650;11.926;2022-11-15T14:35:12;2.70;;;1.43;;
16813;SDS011;8524;57.650;11.926;2022-11-15T14:37:43;2.23;;;1.50;;
16813;SDS011;8524;57.650;11.926;2022-11-15T14:40:12;1.93;;;1.53;;
16813;SDS011;8524;57.650;11.926;2022-11-15T14:42:42;2.17;;;1.60;;
16813;SDS011;8524;57.650;11.926;2022-11-15T14:45:10;1.43;;;1.13;;
16813;SDS011;8524;57.650;11.926;2022-11-15T14:47:39;2.00;;;1.30;;
16813;SDS011;8524;57.650;11.926;2022-11-15T14:50:10;0.80;;;0.80;;
16813;SDS011;8524;57.650;11.926;2022-11-15T14:52:38;2.33;;;1.17;;
16813;SDS011;8524;57.650;11.926;2022-11-15T14:55:11;2.47;;;1.30;;
16813;SDS011;8524;57.650;11.926;2022-11-15T14:57:46;1.43;;;0.83;;
16813;SDS011;8524;57.650;11.926;2022-11-15T15:00:13;2.10;;;1.20;;
16813;SDS011;8524;57.650;11.926;2022-11-15T15:02:42;1.20;;;0.90;;
16813;SDS011;8524;57.650;11.926;2022-11-15T15:05:14;0.90;;;0.90;;
16813;SDS011;8524;57.650;11.926;2022-11-15T15:07:43;1.77;;;0.80;;
16813;SDS011;8524;57.650;11.926;2022-11-15T15:10:11;0.87;;;0.63;;
16813;SDS011;8524;57.650;11.926;2022-11-15T15:12:39;1.13;;;0.80;;
16813;SDS011;8524;57.650;11.926;2022-11-15T15:15:11;1.23;;;0.80;;
16813;SDS011;8524;57.650;11.926;2022-11-15T15:17:40;0.77;;;0.77;;
16813;SDS011;8524;57.650;11.926;2022-11-15T15:20:07;0.87;;;0.87;;
16813;SDS011;8524;57.650;11.926;2022-11-15T15:22:35;0.73;;;0.73;;
16813;SDS011;8524;57.650;11.926;2022-11-15T15:25:07;1.17;;;0.80;;
16813;SDS011;8524;57.650;11.926;2022-11-15T15:27:46;0.73;;;0.73;;
16813;SDS011;8524;57.650;11.926;2022-11-15T15:30:14;2.03;;;1.23;;